sensor_id;sensor_type;location;lat;lon;timestamp;pressure;altitude;pressure_sealevel;temperature;humidity
56594;BME280;42474;51.660;5.824;2023-02-03T00:03:08;102410.0;;;9.9;88.0
56594;BME280;42474;51.660;5.824;2023-02-03T00:08:08;102410.0;;;9.9;88.0
56594;BME280;42474;51.660;5.824;2023-02-03T00:13:08;102400.0;;;9.9;88.0
56594;BME280;42474;51.660;5.824;2023-02-03T00:18:08;102400.0;;;9.9;88.0
56594;BME280;42474;51.660;5.824;2023-02-03T00:23:10;102420.0;;;9.9;88.5
56594;BME280;42474;51.660;5.824;2023-02-03T00:28:08;102410.0;;;9.9;88.0
56594;BME280;42474;51.660;5.824;2023-02-03T00:33:08;102420.0;;;9.9;88.0
56594;BME280;42474;51.660;5.824;2023-02-03T00:38:08;102420.0;;;9.9;88.0
56594;BME280;42474;51.660;5.824;2023-02-03T00:43:08;102430.0;;;9.9;88.0
56594;BME280;42474;51.660;5.824;2023-02-03T00:48:08;102440.0;;;9.9;88.0
56594;BME280;42474;51.660;5.824;2023-02-03T00:53:08;102440.0;;;9.9;88.0
56594;BME280;42474;51.660;5.824;2023-02-03T00:58:08;102430.0;;;9.9;88.0
56594;BME280;42474;51.660;5.824;2023-02-03T01:03:08;102440.0;;;9.9;87.5
56594;BME280;42474;51.660;5.824;2023-02-03T01:08:08;102450.0;;;10.0;87.5
56594;BME280;42474;51.660;5.824;2023-02-03T01:13:08;102450.0;;;10.0;87.5
56594;BME280;42474;51.660;5.824;2023-02-03T01:18:08;102460.0;;;10.0;87.5
56594;BME280;42474;51.660;5.824;2023-02-03T01:23:08;102440.0;;;10.0;87.0
56594;BME280;42474;51.660;5.824;2023-02-03T01:28:08;102440.0;;;10.0;87.0
56594;BME280;42474;51.660;5.824;2023-02-03T01:33:08;102420.0;;;10.0;87.0
56594;BME280;42474;51.660;5.824;2023-02-03T01:38:08;102440.0;;;10.1;86.5
56594;BME280;42474;51.660;5.824;2023-02-03T01:43:08;102450.0;;;10.1;86.5
56594;BME280;42474;51.660;5.824;2023-02-03T01:48:08;102440.0;;;10.1;86.0
56594;BME280;42474;51.660;5.824;2023-02-03T01:53:10;102420.0;;;10.1;86.0
56594;BME280;42474;51.660;5.824;2023-02-03T01:58:11;102420.0;;;10.1;86.0
56594;BME280;42474;51.660;5.824;2023-02-03T02:03:09;102410.0;;;10.1;85.5
56594;BME280;42474;51.660;5.824;2023-02-03T02:08:09;102390.0;;;10.1;85.0
56594;BME280;42474;51.660;5.824;2023-02-03T02:13:08;102390.0;;;10.1;84.5
56594;BME280;42474;51.660;5.824;2023-02-03T02:18:54;102390.0;;;10.1;84.5
56594;BME280;42474;51.660;5.824;2023-02-03T02:26:06;102390.0;;;10.1;84.5
56594;BME280;42474;51.660;5.824;2023-02-03T02:32:49;102390.0;;;10.1;84.0
56594;BME280;42474;51.660;5.824;2023-02-03T02:37:51;102370.0;;;10.1;84.0
56594;BME280;42474;51.660;5.824;2023-02-03T02:41:57;102390.0;;;10.1;83.5
56594;BME280;42474;51.660;5.824;2023-02-03T02:45:50;102380.0;;;10.1;83.0
56594;BME280;42474;51.660;5.824;2023-02-03T02:48:13;102370.0;;;10.1;82.5
56594;BME280;42474;51.660;5.824;2023-02-03T02:53:08;102360.0;;;10.1;82.5
56594;BME280;42474;51.660;5.824;2023-02-03T02:58:13;102380.0;;;10.2;82.0
56594;BME280;42474;51.660;5.824;2023-02-03T03:03:14;102390.0;;;10.1;82.0
56594;BME280;42474;51.660;5.824;2023-02-03T03:08:09;102390.0;;;10.2;82.0
56594;BME280;42474;51.660;5.824;2023-02-03T03:13:29;102390.0;;;10.2;82.0
56594;BME280;42474;51.660;5.824;2023-02-03T03:18:20;102380.0;;;10.2;81.5
56594;BME280;42474;51.660;5.824;2023-02-03T03:23:11;102350.0;;;10.2;81.5
56594;BME280;42474;51.660;5.824;2023-02-03T03:28:27;102340.0;;;10.2;81.5
56594;BME280;42474;51.660;5.824;2023-02-03T03:33:08;102340.0;;;10.2;81.5
56594;BME280;42474;51.660;5.824;2023-02-03T03:38:11;102350.0;;;10.2;81.5
56594;BME280;42474;51.660;5.824;2023-02-03T03:43:13;102360.0;;;10.2;81.5
56594;BME280;42474;51.660;5.824;2023-02-03T03:48:11;102380.0;;;10.1;81.5
56594;BME280;42474;51.660;5.824;2023-02-03T03:53:10;102370.0;;;10.2;81.5
56594;BME280;42474;51.660;5.824;2023-02-03T03:58:09;102380.0;;;10.2;81.5
56594;BME280;42474;51.660;5.824;2023-02-03T04:03:25;102360.0;;;10.2;81.5
56594;BME280;42474;51.660;5.824;2023-02-03T04:08:08;102380.0;;;10.2;81.5
56594;BME280;42474;51.660;5.824;2023-02-03T04:13:10;102380.0;;;10.2;81.5
56594;BME280;42474;51.660;5.824;2023-02-03T04:18:11;102390.0;;;10.2;81.0
56594;BME280;42474;51.660;5.824;2023-02-03T04:23:09;102400.0;;;10.3;81.0
56594;BME280;42474;51.660;5.824;2023-02-03T04:28:08;102390.0;;;10.3;81.0
56594;BME280;42474;51.660;5.824;2023-02-03T04:33:08;102400.0;;;10.3;80.5
56594;BME280;42474;51.660;5.824;2023-02-03T04:38:08;102390.0;;;10.3;80.5
56594;BME280;42474;51.660;5.824;2023-02-03T04:43:08;102400.0;;;10.3;80.5
56594;BME280;42474;51.660;5.824;2023-02-03T04:48:08;102380.0;;;10.4;80.0
56594;BME280;42474;51.660;5.824;2023-02-03T04:53:08;102370.0;;;10.4;79.5
56594;BME280;42474;51.660;5.824;2023-02-03T04:58:08;102360.0;;;10.4;79.5
56594;BME280;42474;51.660;5.824;2023-02-03T05:03:08;102350.0;;;10.5;79.5
56594;BME280;42474;51.660;5.824;2023-02-03T05:08:08;102350.0;;;10.5;79.5
56594;BME280;42474;51.660;5.824;2023-02-03T05:13:08;102370.0;;;10.5;79.0
56594;BME280;42474;51.660;5.824;2023-02-03T05:18:08;102370.0;;;10.5;79.0
56594;BME280;42474;51.660;5.824;2023-02-03T05:23:08;102360.0;;;10.5;79.0
56594;BME280;42474;51.660;5.824;2023-02-03T05:28:08;102360.0;;;10.6;79.0
56594;BME280;42474;51.660;5.824;2023-02-03T05:33:08;102370.0;;;10.6;78.5
56594;BME280;42474;51.660;5.824;2023-02-03T05:38:08;102380.0;;;10.6;78.5
56594;BME280;42474;51.660;5.824;2023-02-03T05:43:08;102380.0;;;10.6;78.5
56594;BME280;42474;51.660;5.824;2023-02-03T05:48:08;102380.0;;;10.6;78.5
56594;BME280;42474;51.660;5.824;2023-02-03T05:53:08;102380.0;;;10.6;78.5
56594;BME280;42474;51.660;5.824;2023-02-03T05:58:08;102380.0;;;10.6;78.0
56594;BME280;42474;51.660;5.824;2023-02-03T06:03:08;102380.0;;;10.6;78.5
56594;BME280;42474;51.660;5.824;2023-02-03T06:08:08;102380.0;;;10.6;78.0
56594;BME280;42474;51.660;5.824;2023-02-03T06:13:10;102370.0;;;10.6;78.0
56594;BME280;42474;51.660;5.824;2023-02-03T06:18:08;102380.0;;;10.6;78.0
56594;BME280;42474;51.660;5.824;2023-02-03T06:23:08;102350.0;;;10.6;78.0
56594;BME280;42474;51.660;5.824;2023-02-03T06:28:08;102360.0;;;10.6;78.0
56594;BME280;42474;51.660;5.824;2023-02-03T06:33:08;102360.0;;;10.6;78.0
56594;BME280;42474;51.660;5.824;2023-02-03T06:38:08;102370.0;;;10.6;78.5
56594;BME280;42474;51.660;5.824;2023-02-03T06:43:08;102370.0;;;10.6;78.5
56594;BME280;42474;51.660;5.824;2023-02-03T06:48:08;102390.0;;;10.6;78.5
56594;BME280;42474;51.660;5.824;2023-02-03T06:53:08;102380.0;;;10.6;78.5
56594;BME280;42474;51.660;5.824;2023-02-03T06:58:08;102390.0;;;10.5;78.5
56594;BME280;42474;51.660;5.824;2023-02-03T07:03:08;102390.0;;;10.5;78.5
56594;BME280;42474;51.660;5.824;2023-02-03T07:08:08;102430.0;;;10.5;79.0
56594;BME280;42474;51.660;5.824;2023-02-03T07:13:08;102400.0;;;10.5;79.0
56594;BME280;42474;51.660;5.824;2023-02-03T07:18:08;102410.0;;;10.5;79.0
56594;BME280;42474;51.660;5.824;2023-02-03T07:23:08;102400.0;;;10.6;79.0
56594;BME280;42474;51.660;5.824;2023-02-03T07:28:08;102390.0;;;10.6;79.0
56594;BME280;42474;51.660;5.824;2023-02-03T07:33:08;102400.0;;;10.6;79.5
56594;BME280;42474;51.660;5.824;2023-02-03T07:38:08;102390.0;;;10.6;79.5
56594;BME280;42474;51.660;5.824;2023-02-03T07:43:08;102390.0;;;10.6;79.5
56594;BME280;42474;51.660;5.824;2023-02-03T07:48:08;102420.0;;;10.5;80.0
56594;BME280;42474;51.660;5.824;2023-02-03T07:53:08;102420.0;;;10.6;80.0
56594;BME280;42474;51.660;5.824;2023-02-03T07:58:08;102440.0;;;10.5;80.0
56594;BME280;42474;51.660;5.824;2023-02-03T08:03:08;102420.0;;;10.6;80.0
56594;BME280;42474;51.660;5.824;2023-02-03T08:08:08;102430.0;;;10.6;80.0
56594;BME280;42474;51.660;5.824;2023-02-03T08:13:08;102430.0;;;10.6;80.0
56594;BME280;42474;51.660;5.824;2023-02-03T08:18:08;102440.0;;;10.7;80.0
56594;BME280;42474;51.660;5.824;2023-02-03T08:23:08;102450.0;;;10.7;80.0
56594;BME280;42474;51.660;5.824;2023-02-03T08:28:08;102460.0;;;10.7;80.5
56594;BME280;42474;51.660;5.824;2023-02-03T08:33:08;102460.0;;;10.7;80.5
56594;BME280;42474;51.660;5.824;2023-02-03T08:38:08;102460.0;;;10.7;80.5
56594;BME280;42474;51.660;5.824;2023-02-03T08:43:08;102470.0;;;10.7;80.5
56594;BME280;42474;51.660;5.824;2023-02-03T08:48:08;102490.0;;;10.7;81.0
56594;BME280;42474;51.660;5.824;2023-02-03T08:53:08;102470.0;;;10.7;80.5
56594;BME280;42474;51.660;5.824;2023-02-03T08:58:08;102460.0;;;10.8;81.0
56594;BME280;42474;51.660;5.824;2023-02-03T09:03:08;102470.0;;;10.8;81.5
56594;BME280;42474;51.660;5.824;2023-02-03T09:08:08;102470.0;;;10.8;81.5
56594;BME280;42474;51.660;5.824;2023-02-03T09:13:08;102470.0;;;10.8;81.5
56594;BME280;42474;51.660;5.824;2023-02-03T09:18:08;102470.0;;;10.8;81.5
56594;BME280;42474;51.660;5.824;2023-02-03T09:23:08;102490.0;;;10.9;81.5
56594;BME280;42474;51.660;5.824;2023-02-03T09:28:08;102500.0;;;10.8;81.5
56594;BME280;42474;51.660;5.824;2023-02-03T09:33:08;102510.0;;;10.8;82.0
56594;BME280;42474;51.660;5.824;2023-02-03T09:38:08;102500.0;;;10.8;82.0
56594;BME280;42474;51.660;5.824;2023-02-03T09:43:36;102510.0;;;10.9;82.0
56594;BME280;42474;51.660;5.824;2023-02-03T09:48:20;102480.0;;;10.9;82.0
56594;BME280;42474;51.660;5.824;2023-02-03T09:53:22;102490.0;;;11.0;82.0
56594;BME280;42474;51.660;5.824;2023-02-03T09:58:10;102480.0;;;11.0;82.0
56594;BME280;42474;51.660;5.824;2023-02-03T10:03:21;102480.0;;;11.0;81.5
56594;BME280;42474;51.660;5.824;2023-02-03T10:08:17;102490.0;;;11.1;82.0
56594;BME280;42474;51.660;5.824;2023-02-03T10:13:48;102500.0;;;11.1;81.5
56594;BME280;42474;51.660;5.824;2023-02-03T10:18:22;102500.0;;;11.2;81.5
56594;BME280;42474;51.660;5.824;2023-02-03T10:23:11;102510.0;;;11.2;81.5
56594;BME280;42474;51.660;5.824;2023-02-03T10:28:17;102510.0;;;11.3;81.5
56594;BME280;42474;51.660;5.824;2023-02-03T10:33:15;102500.0;;;11.3;81.0
56594;BME280;42474;51.660;5.824;2023-02-03T10:38:13;102510.0;;;11.4;81.0
56594;BME280;42474;51.660;5.824;2023-02-03T10:43:08;102500.0;;;11.4;81.0
56594;BME280;42474;51.660;5.824;2023-02-03T10:48:15;102510.0;;;11.5;80.5
56594;BME280;42474;51.660;5.824;2023-02-03T10:53:23;102490.0;;;11.4;80.5
56594;BME280;42474;51.660;5.824;2023-02-03T10:58:25;102510.0;;;11.5;80.5
56594;BME280;42474;51.660;5.824;2023-02-03T11:03:24;102520.0;;;11.5;81.0
56594;BME280;42474;51.660;5.824;2023-02-03T11:08:13;102520.0;;;11.6;81.0
56594;BME280;42474;51.660;5.824;2023-02-03T11:13:25;102530.0;;;11.6;80.5
56594;BME280;42474;51.660;5.824;2023-02-03T11:18:54;102530.0;;;11.6;80.0
56594;BME280;42474;51.660;5.824;2023-02-03T11:23:09;102520.0;;;11.6;80.0
56594;BME280;42474;51.660;5.824;2023-02-03T11:28:12;102520.0;;;11.6;80.0
56594;BME280;42474;51.660;5.824;2023-02-03T11:33:17;102530.0;;;11.6;80.0
56594;BME280;42474;51.660;5.824;2023-02-03T11:38:29;102530.0;;;11.6;80.0
56594;BME280;42474;51.660;5.824;2023-02-03T11:43:14;102520.0;;;11.6;80.0
56594;BME280;42474;51.660;5.824;2023-02-03T11:48:20;102520.0;;;11.6;80.0
56594;BME280;42474;51.660;5.824;2023-02-03T11:53:42;102520.0;;;11.7;79.5
56594;BME280;42474;51.660;5.824;2023-02-03T12:00:18;102530.0;;;11.7;80.0
56594;BME280;42474;51.660;5.824;2023-02-03T12:06:48;102530.0;;;11.6;80.0
56594;BME280;42474;51.660;5.824;2023-02-03T12:12:44;102520.0;;;11.6;80.0
56594;BME280;42474;51.660;5.824;2023-02-03T12:18:36;102500.0;;;11.6;80.5
56594;BME280;42474;51.660;5.824;2023-02-03T12:23:32;102510.0;;;11.6;80.5
56594;BME280;42474;51.660;5.824;2023-02-03T12:29:19;102500.0;;;11.6;80.5
56594;BME280;42474;51.660;5.824;2023-02-03T12:33:12;102520.0;;;11.7;80.5
56594;BME280;42474;51.660;5.824;2023-02-03T12:36:51;102540.0;;;11.7;80.5
56594;BME280;42474;51.660;5.824;2023-02-03T12:40:29;102540.0;;;11.7;80.5
56594;BME280;42474;51.660;5.824;2023-02-03T12:43:50;102550.0;;;11.7;80.5
56594;BME280;42474;51.660;5.824;2023-02-03T12:48:11;102550.0;;;11.8;81.0
56594;BME280;42474;51.660;5.824;2023-02-03T12:53:17;102550.0;;;11.8;80.5
56594;BME280;42474;51.660;5.824;2023-02-03T12:58:17;102540.0;;;11.8;80.5
56594;BME280;42474;51.660;5.824;2023-02-03T13:03:23;102550.0;;;11.8;80.5
56594;BME280;42474;51.660;5.824;2023-02-03T13:13:16;102560.0;;;11.9;80.0
56594;BME280;42474;51.660;5.824;2023-02-03T13:18:13;102560.0;;;12.0;80.0
56594;BME280;42474;51.660;5.824;2023-02-03T13:23:11;102560.0;;;12.1;80.0
56594;BME280;42474;51.660;5.824;2023-02-03T13:29:03;102580.0;;;12.1;80.0
56594;BME280;42474;51.660;5.824;2023-02-03T13:35:29;102580.0;;;11.9;82.0
56594;BME280;42474;51.660;5.824;2023-02-03T13:41:18;102570.0;;;11.8;83.0
56594;BME280;42474;51.660;5.824;2023-02-03T13:43:59;102570.0;;;11.8;83.5
56594;BME280;42474;51.660;5.824;2023-02-03T13:48:15;102570.0;;;11.8;83.5
56594;BME280;42474;51.660;5.824;2023-02-03T13:53:15;102570.0;;;11.7;84.0
56594;BME280;42474;51.660;5.824;2023-02-03T13:58:22;102580.0;;;11.7;83.5
56594;BME280;42474;51.660;5.824;2023-02-03T14:03:16;102580.0;;;11.6;83.0
56594;BME280;42474;51.660;5.824;2023-02-03T14:08:48;102610.0;;;11.5;83.5
56594;BME280;42474;51.660;5.824;2023-02-03T14:13:19;102610.0;;;11.1;83.5
56594;BME280;42474;51.660;5.824;2023-02-03T14:18:32;102590.0;;;10.7;82.5
56594;BME280;42474;51.660;5.824;2023-02-03T14:23:22;102590.0;;;10.5;82.5
56594;BME280;42474;51.660;5.824;2023-02-03T14:28:11;102610.0;;;10.4;84.0
56594;BME280;42474;51.660;5.824;2023-02-03T14:33:08;102600.0;;;10.5;85.5
56594;BME280;42474;51.660;5.824;2023-02-03T14:38:10;102610.0;;;10.5;86.0
56594;BME280;42474;51.660;5.824;2023-02-03T14:43:33;102620.0;;;10.6;85.5
56594;BME280;42474;51.660;5.824;2023-02-03T14:50:16;102640.0;;;10.7;85.5
56594;BME280;42474;51.660;5.824;2023-02-03T14:55:50;102640.0;;;10.8;85.5
56594;BME280;42474;51.660;5.824;2023-02-03T14:59:14;102640.0;;;10.9;85.0
56594;BME280;42474;51.660;5.824;2023-02-03T15:03:30;102650.0;;;10.9;84.5
56594;BME280;42474;51.660;5.824;2023-02-03T15:08:28;102650.0;;;11.0;84.0
56594;BME280;42474;51.660;5.824;2023-02-03T15:13:23;102650.0;;;10.9;83.5
56594;BME280;42474;51.660;5.824;2023-02-03T15:18:27;102640.0;;;11.0;83.0
56594;BME280;42474;51.660;5.824;2023-02-03T15:23:17;102650.0;;;10.9;83.0
56594;BME280;42474;51.660;5.824;2023-02-03T15:28:18;102650.0;;;10.9;82.5
56594;BME280;42474;51.660;5.824;2023-02-03T15:33:13;102650.0;;;10.9;82.5
56594;BME280;42474;51.660;5.824;2023-02-03T15:38:17;102660.0;;;10.9;82.0
56594;BME280;42474;51.660;5.824;2023-02-03T15:43:15;102660.0;;;10.9;82.0
56594;BME280;42474;51.660;5.824;2023-02-03T15:48:13;102670.0;;;10.9;81.5
56594;BME280;42474;51.660;5.824;2023-02-03T15:53:20;102670.0;;;10.9;81.5
56594;BME280;42474;51.660;5.824;2023-02-03T15:58:15;102670.0;;;10.8;81.0
56594;BME280;42474;51.660;5.824;2023-02-03T16:03:21;102690.0;;;10.8;81.0
56594;BME280;42474;51.660;5.824;2023-02-03T16:08:25;102700.0;;;10.8;81.0
56594;BME280;42474;51.660;5.824;2023-02-03T16:13:22;102700.0;;;10.7;81.0
56594;BME280;42474;51.660;5.824;2023-02-03T16:18:15;102730.0;;;10.7;81.0
56594;BME280;42474;51.660;5.824;2023-02-03T16:23:18;102720.0;;;10.7;81.0
56594;BME280;42474;51.660;5.824;2023-02-03T16:28:15;102730.0;;;10.6;81.0
56594;BME280;42474;51.660;5.824;2023-02-03T16:33:16;102730.0;;;10.6;80.5
56594;BME280;42474;51.660;5.824;2023-02-03T16:43:14;102740.0;;;10.6;80.5
56594;BME280;42474;51.660;5.824;2023-02-03T16:48:09;102750.0;;;10.5;81.0
56594;BME280;42474;51.660;5.824;2023-02-03T16:53:11;102740.0;;;10.5;80.5
56594;BME280;42474;51.660;5.824;2023-02-03T16:58:09;102750.0;;;10.5;80.5
56594;BME280;42474;51.660;5.824;2023-02-03T17:03:10;102760.0;;;10.4;80.5
56594;BME280;42474;51.660;5.824;2023-02-03T17:08:09;102780.0;;;10.4;81.0
56594;BME280;42474;51.660;5.824;2023-02-03T17:13:10;102770.0;;;10.4;81.0
56594;BME280;42474;51.660;5.824;2023-02-03T17:18:08;102780.0;;;10.3;81.5
56594;BME280;42474;51.660;5.824;2023-02-03T17:23:09;102790.0;;;10.3;81.5
56594;BME280;42474;51.660;5.824;2023-02-03T17:28:11;102790.0;;;10.3;82.0
56594;BME280;42474;51.660;5.824;2023-02-03T17:33:09;102800.0;;;10.3;82.0
56594;BME280;42474;51.660;5.824;2023-02-03T17:38:09;102810.0;;;10.3;82.5
56594;BME280;42474;51.660;5.824;2023-02-03T17:43:08;102820.0;;;10.3;82.5
56594;BME280;42474;51.660;5.824;2023-02-03T17:48:08;102830.0;;;10.3;83.0
56594;BME280;42474;51.660;5.824;2023-02-03T17:53:08;102840.0;;;10.3;83.5
56594;BME280;42474;51.660;5.824;2023-02-03T17:58:08;102840.0;;;10.3;84.0
56594;BME280;42474;51.660;5.824;2023-02-03T18:03:08;102860.0;;;10.3;84.0
56594;BME280;42474;51.660;5.824;2023-02-03T18:13:08;102870.0;;;10.3;84.5
56594;BME280;42474;51.660;5.824;2023-02-03T18:18:08;102870.0;;;10.2;85.0
56594;BME280;42474;51.660;5.824;2023-02-03T18:23:08;102890.0;;;10.2;85.0
56594;BME280;42474;51.660;5.824;2023-02-03T18:28:08;102890.0;;;10.2;85.0
56594;BME280;42474;51.660;5.824;2023-02-03T18:33:08;102900.0;;;10.2;85.5
56594;BME280;42474;51.660;5.824;2023-02-03T18:38:09;102920.0;;;10.2;85.5
56594;BME280;42474;51.660;5.824;2023-02-03T18:43:08;102920.0;;;10.2;86.0
56594;BME280;42474;51.660;5.824;2023-02-03T18:48:08;102920.0;;;10.2;86.0
56594;BME280;42474;51.660;5.824;2023-02-03T18:53:08;102920.0;;;10.2;86.0
56594;BME280;42474;51.660;5.824;2023-02-03T18:58:09;102930.0;;;10.2;85.5
56594;BME280;42474;51.660;5.824;2023-02-03T19:03:08;102940.0;;;10.1;85.0
56594;BME280;42474;51.660;5.824;2023-02-03T19:08:08;102940.0;;;10.1;84.5
56594;BME280;42474;51.660;5.824;2023-02-03T19:13:09;102930.0;;;10.1;84.0
56594;BME280;42474;51.660;5.824;2023-02-03T19:18:08;102930.0;;;10.0;83.5
56594;BME280;42474;51.660;5.824;2023-02-03T19:23:09;102940.0;;;10.0;82.5
56594;BME280;42474;51.660;5.824;2023-02-03T19:28:10;102930.0;;;10.0;81.5
56594;BME280;42474;51.660;5.824;2023-02-03T19:33:08;102930.0;;;10.0;80.5
56594;BME280;42474;51.660;5.824;2023-02-03T19:38:08;102940.0;;;9.9;80.0
56594;BME280;42474;51.660;5.824;2023-02-03T19:43:08;102950.0;;;9.9;79.0
56594;BME280;42474;51.660;5.824;2023-02-03T19:48:08;102960.0;;;9.9;78.5
56594;BME280;42474;51.660;5.824;2023-02-03T19:53:08;102950.0;;;9.9;78.0
56594;BME280;42474;51.660;5.824;2023-02-03T19:58:09;102970.0;;;9.9;78.0
56594;BME280;42474;51.660;5.824;2023-02-03T20:03:09;102970.0;;;9.8;77.5
56594;BME280;42474;51.660;5.824;2023-02-03T20:08:09;102970.0;;;9.8;77.0
56594;BME280;42474;51.660;5.824;2023-02-03T20:13:09;102980.0;;;9.8;77.0
56594;BME280;42474;51.660;5.824;2023-02-03T20:18:08;102980.0;;;9.8;77.0
56594;BME280;42474;51.660;5.824;2023-02-03T20:23:09;102980.0;;;9.8;77.0
56594;BME280;42474;51.660;5.824;2023-02-03T20:28:09;102990.0;;;9.8;77.0
56594;BME280;42474;51.660;5.824;2023-02-03T20:33:08;103000.0;;;9.8;77.5
56594;BME280;42474;51.660;5.824;2023-02-03T20:38:09;103000.0;;;9.8;78.0
56594;BME280;42474;51.660;5.824;2023-02-03T20:43:16;102990.0;;;9.8;78.5
56594;BME280;42474;51.660;5.824;2023-02-03T20:48:12;102990.0;;;9.8;78.5
56594;BME280;42474;51.660;5.824;2023-02-03T20:53:15;103000.0;;;9.8;78.5
56594;BME280;42474;51.660;5.824;2023-02-03T20:58:14;103000.0;;;9.8;78.5
56594;BME280;42474;51.660;5.824;2023-02-03T21:03:09;103000.0;;;9.8;79.0
56594;BME280;42474;51.660;5.824;2023-02-03T21:08:10;103000.0;;;9.9;79.0
56594;BME280;42474;51.660;5.824;2023-02-03T21:13:16;103000.0;;;9.9;79.5
56594;BME280;42474;51.660;5.824;2023-02-03T21:18:23;103010.0;;;9.9;80.0
56594;BME280;42474;51.660;5.824;2023-02-03T21:23:10;103010.0;;;9.9;80.0
56594;BME280;42474;51.660;5.824;2023-02-03T21:28:20;103010.0;;;9.9;80.0
56594;BME280;42474;51.660;5.824;2023-02-03T21:33:28;103020.0;;;9.9;79.5
56594;BME280;42474;51.660;5.824;2023-02-03T21:38:25;103020.0;;;9.8;79.0
56594;BME280;42474;51.660;5.824;2023-02-03T21:43:17;103030.0;;;9.8;78.5
56594;BME280;42474;51.660;5.824;2023-02-03T21:48:27;103040.0;;;9.8;78.5
56594;BME280;42474;51.660;5.824;2023-02-03T21:53:24;103040.0;;;9.8;78.5
56594;BME280;42474;51.660;5.824;2023-02-03T21:58:23;103050.0;;;9.8;78.5
56594;BME280;42474;51.660;5.824;2023-02-03T22:03:15;103060.0;;;9.8;78.5
56594;BME280;42474;51.660;5.824;2023-02-03T22:08:15;103050.0;;;9.7;78.0
56594;BME280;42474;51.660;5.824;2023-02-03T22:13:09;103060.0;;;9.7;78.0
56594;BME280;42474;51.660;5.824;2023-02-03T22:18:09;103060.0;;;9.7;78.5
56594;BME280;42474;51.660;5.824;2023-02-03T22:23:08;103070.0;;;9.6;78.0
56594;BME280;42474;51.660;5.824;2023-02-03T22:28:08;103080.0;;;9.6;78.0
56594;BME280;42474;51.660;5.824;2023-02-03T22:33:09;103090.0;;;9.6;77.5
56594;BME280;42474;51.660;5.824;2023-02-03T22:38:09;103100.0;;;9.6;77.5
56594;BME280;42474;51.660;5.824;2023-02-03T22:43:09;103100.0;;;9.5;77.5
56594;BME280;42474;51.660;5.824;2023-02-03T22:48:08;103090.0;;;9.5;77.5
56594;BME280;42474;51.660;5.824;2023-02-03T22:53:09;103100.0;;;9.5;77.5
56594;BME280;42474;51.660;5.824;2023-02-03T22:58:09;103110.0;;;9.5;77.5
56594;BME280;42474;51.660;5.824;2023-02-03T23:03:09;103120.0;;;9.4;77.5
56594;BME280;42474;51.660;5.824;2023-02-03T23:08:09;103120.0;;;9.4;77.5
56594;BME280;42474;51.660;5.824;2023-02-03T23:13:09;103120.0;;;9.3;77.5
56594;BME280;42474;51.660;5.824;2023-02-03T23:18:09;103130.0;;;9.3;78.0
56594;BME280;42474;51.660;5.824;2023-02-03T23:23:08;103140.0;;;9.3;78.0
56594;BME280;42474;51.660;5.824;2023-02-03T23:28:09;103150.0;;;9.3;78.0
56594;BME280;42474;51.660;5.824;2023-02-03T23:33:09;103150.0;;;9.3;78.5
56594;BME280;42474;51.660;5.824;2023-02-03T23:38:09;103160.0;;;9.3;78.5
56594;BME280;42474;51.660;5.824;2023-02-03T23:43:09;103150.0;;;9.3;78.5
56594;BME280;42474;51.660;5.824;2023-02-03T23:48:09;103150.0;;;9.3;79.0
56594;BME280;42474;51.660;5.824;2023-02-03T23:53:10;103150.0;;;9.2;79.0
56594;BME280;42474;51.660;5.824;2023-02-03T23:58:10;103150.0;;;9.2;79.5
